Time;durP1;ratioP1;P1;durP2;ratioP2;P2;SDS_P1;SDS_P2;PMS_P1;PMS_P2;Temp;Humidity;BMP_temperature;BMP_pressure;BME280_temperature;BME280_humidity;BME280_pressure;Samples;Min_cycle;Max_cycle;Signal;HPM_P1;HPM_P2
2023/03/13 00:01:18;;;;;;;32.10;7.07;;;9.90;99.90;;;;;;5039860;28;20266;-73
2023/03/13 00:03:45;;;;;;;32.10;7.23;;;9.80;99.90;;;;;;5038200;28;20229;-73
2023/03/13 00:06:13;;;;;;;32.10;6.20;;;9.80;99.90;;;;;;5040132;28;20584;-73
2023/03/13 00:08:41;;;;;;;21.97;5.60;;;9.70;99.90;;;;;;5021869;28;20730;-72
2023/03/13 00:11:09;;;;;;;38.33;6.87;;;9.70;99.90;;;;;;5038910;28;20232;-73
2023/03/13 00:13:36;;;;;;;34.30;7.47;;;9.70;99.90;;;;;;5041364;28;20598;-73
2023/03/13 00:16:12;;;;;;;36.17;7.33;;;9.70;99.90;;;;;;5041672;28;20200;-73
2023/03/13 00:18:45;;;;;;;24.30;5.73;;;9.60;99.90;;;;;;5023002;28;20229;-73
2023/03/13 00:21:13;;;;;;;29.20;6.33;;;9.70;99.90;;;;;;5044827;28;20205;-73
2023/03/13 00:23:39;;;;;;;35.40;6.77;;;9.60;99.90;;;;;;5042159;28;20210;-75
2023/03/13 00:26:12;;;;;;;30.03;6.07;;;9.60;99.90;;;;;;5044019;28;20211;-74
2023/03/13 00:28:40;;;;;;;30.57;5.77;;;9.60;99.90;;;;;;5044078;28;20201;-73
2023/03/13 00:31:12;;;;;;;25.13;6.17;;;9.60;99.90;;;;;;5045436;28;20311;-73
2023/03/13 00:33:41;;;;;;;30.93;6.80;;;9.60;99.90;;;;;;5043137;28;20591;-73
2023/03/13 00:36:20;;;;;;;27.23;6.40;;;9.60;99.90;;;;;;5045099;28;20569;-73
2023/03/13 00:38:46;;;;;;;31.77;7.00;;;9.60;99.90;;;;;;5041133;28;20217;-73
2023/03/13 00:41:19;;;;;;;30.97;6.67;;;9.60;99.90;;;;;;5043409;28;20221;-74
2023/03/13 00:43:47;;;;;;;29.40;7.20;;;9.60;99.90;;;;;;5045179;28;20296;-74
2023/03/13 00:46:17;;;;;;;29.07;7.13;;;9.60;99.90;;;;;;5044729;28;20608;-73
2023/03/13 00:48:43;;;;;;;25.80;7.43;;;9.60;99.90;;;;;;5045006;28;20329;-73
2023/03/13 00:51:10;;;;;;;36.00;8.37;;;9.60;99.90;;;;;;5025842;28;20197;-72
2023/03/13 00:53:37;;;;;;;25.97;6.60;;;9.60;99.90;;;;;;5046441;28;20676;-73
2023/03/13 00:56:09;;;;;;;26.93;6.50;;;9.60;99.90;;;;;;5050325;28;20615;-73
2023/03/13 00:58:38;;;;;;;30.33;6.33;;;9.60;99.90;;;;;;5041524;28;20292;-73
2023/03/13 01:01:16;;;;;;;23.17;7.00;;;9.60;99.90;;;;;;5046645;28;20234;-74
2023/03/13 01:03:46;;;;;;;27.23;6.30;;;9.60;99.90;;;;;;5026264;28;20316;-74
2023/03/13 01:06:15;;;;;;;33.90;7.57;;;9.60;99.90;;;;;;5026777;28;20324;-74
2023/03/13 01:08:42;;;;;;;29.30;6.60;;;9.60;99.90;;;;;;5042753;28;20215;-71
2023/03/13 01:11:12;;;;;;;34.67;6.57;;;9.60;99.90;;;;;;5040264;28;20218;-73
2023/03/13 01:13:39;;;;;;;31.63;6.60;;;9.60;99.90;;;;;;5022570;28;20236;-72
2023/03/13 01:16:11;;;;;;;33.30;6.43;;;9.60;99.90;;;;;;5044122;28;20201;-72
2023/03/13 01:18:41;;;;;;;30.30;6.77;;;9.60;99.90;;;;;;5041588;28;20698;-73
2023/03/13 01:21:08;;;;;;;33.93;6.87;;;9.60;99.90;;;;;;5043508;28;20209;-74
2023/03/13 01:23:34;;;;;;;29.17;7.80;;;9.60;99.90;;;;;;5040345;28;20206;-73
2023/03/13 01:26:04;;;;;;;35.00;6.13;;;9.60;99.90;;;;;;5045491;28;20192;-72
2023/03/13 01:28:32;;;;;;;39.30;8.83;;;9.60;99.90;;;;;;5025202;28;20291;-73
2023/03/13 01:31:00;;;;;;;32.33;7.30;;;9.60;99.90;;;;;;5027138;28;20595;-72
2023/03/13 01:33:27;;;;;;;17.83;6.47;;;9.60;99.90;;;;;;5041081;28;20294;-72
2023/03/13 01:36:01;;;;;;;27.43;7.37;;;9.60;99.90;;;;;;5042125;28;20213;-72
2023/03/13 01:38:28;;;;;;;36.17;7.90;;;9.60;99.90;;;;;;5028990;28;20208;-73
2023/03/13 01:40:54;;;;;;;22.13;6.83;;;9.60;99.90;;;;;;5041985;28;20204;-73
2023/03/13 01:43:30;;;;;;;24.93;6.17;;;9.70;99.90;;;;;;5043983;28;20220;-73
2023/03/13 01:46:02;;;;;;;21.63;6.97;;;9.60;99.90;;;;;;5022499;28;20301;-72
2023/03/13 01:48:50;;;;;;;25.33;7.47;;;9.70;99.90;;;;;;5025853;28;20256;-72
2023/03/13 01:51:20;;;;;;;17.30;6.53;;;9.70;99.90;;;;;;5043452;28;20659;-73
2023/03/13 01:53:52;;;;;;;17.90;6.13;;;9.70;99.90;;;;;;5044609;28;20247;-72
2023/03/13 01:56:23;;;;;;;19.60;6.93;;;9.70;99.90;;;;;;5049041;28;20280;-72
2023/03/13 01:58:51;;;;;;;21.80;6.33;;;9.70;99.90;;;;;;5041121;28;20208;-73
2023/03/13 02:01:19;;;;;;;15.50;5.93;;;9.70;99.90;;;;;;5043346;28;20579;-73
2023/03/13 02:03:48;;;;;;;16.87;5.13;;;9.70;99.90;;;;;;5023109;28;20733;-72
2023/03/13 02:06:16;;;;;;;13.77;5.13;;;9.80;99.90;;;;;;5043030;28;20320;-73
2023/03/13 02:08:50;;;;;;;15.53;5.87;;;9.80;99.90;;;;;;5040234;28;20206;-73
2023/03/13 02:11:28;;;;;;;18.40;5.50;;;9.80;99.90;;;;;;5040562;28;20248;-73
2023/03/13 02:13:55;;;;;;;16.23;5.93;;;9.80;99.90;;;;;;5042655;28;20227;-73
2023/03/13 02:16:22;;;;;;;18.93;5.10;;;9.80;99.90;;;;;;5045741;28;20254;-73
2023/03/13 02:18:49;;;;;;;15.63;5.43;;;9.90;99.90;;;;;;5023398;28;20233;-73
2023/03/13 02:21:53;;;;;;;15.47;5.33;;;9.90;99.90;;;;;;5022270;28;20209;-73
2023/03/13 02:24:36;;;;;;;12.53;5.00;;;10.00;99.90;;;;;;4994049;28;20617;-72
2023/03/13 02:27:03;;;;;;;14.47;4.80;;;10.00;99.90;;;;;;5027565;28;20219;-73
2023/03/13 02:29:30;;;;;;;13.87;5.40;;;10.00;99.90;;;;;;5041409;28;20205;-74
2023/03/13 02:31:57;;;;;;;13.90;4.90;;;10.00;99.90;;;;;;5023899;28;20615;-72
2023/03/13 02:34:30;;;;;;;19.00;5.63;;;10.00;99.90;;;;;;5039375;28;20606;-73
2023/03/13 02:36:58;;;;;;;14.80;6.80;;;10.10;99.90;;;;;;5042340;28;20284;-74
2023/03/13 02:39:27;;;;;;;12.40;5.83;;;10.10;99.90;;;;;;5042942;28;20285;-74
2023/03/13 02:41:54;;;;;;;15.17;5.47;;;10.10;99.90;;;;;;5040969;28;20300;-71
2023/03/13 02:44:40;;;;;;;13.67;5.33;;;10.10;99.90;;;;;;5042139;28;20206;-72
2023/03/13 02:47:09;;;;;;;13.90;5.60;;;10.10;99.90;;;;;;5039985;28;20272;-73
2023/03/13 02:49:36;;;;;;;13.40;5.37;;;10.20;99.90;;;;;;5040338;28;20216;-72
2023/03/13 02:52:28;;;;;;;12.37;6.50;;;10.20;99.90;;;;;;5024144;28;20208;-72
2023/03/13 02:54:59;;;;;;;14.97;6.40;;;10.20;99.90;;;;;;5045957;28;20209;-72
2023/03/13 02:57:26;;;;;;;12.60;6.13;;;10.20;99.90;;;;;;5044961;28;20201;-73
2023/03/13 02:59:52;;;;;;;13.70;7.07;;;10.30;99.90;;;;;;5041820;28;20303;-72
2023/03/13 03:02:19;;;;;;;13.80;6.00;;;10.30;99.90;;;;;;5040012;28;20221;-72
2023/03/13 03:04:46;;;;;;;13.07;5.90;;;10.40;99.90;;;;;;5040819;28;20292;-72
2023/03/13 03:07:13;;;;;;;13.40;6.60;;;10.40;99.90;;;;;;5038370;28;20230;-73
2023/03/13 03:09:40;;;;;;;14.20;6.83;;;10.40;99.90;;;;;;5021016;28;20201;-73
2023/03/13 03:12:07;;;;;;;13.73;6.43;;;10.40;99.90;;;;;;5042337;28;20263;-72
2023/03/13 03:14:34;;;;;;;15.63;6.50;;;10.50;99.90;;;;;;5024759;28;20237;-72
2023/03/13 03:17:00;;;;;;;14.80;7.13;;;10.50;99.90;;;;;;5042089;28;20224;-71
2023/03/13 03:19:27;;;;;;;14.37;7.57;;;10.50;99.90;;;;;;5042261;28;20218;-73
2023/03/13 03:21:54;;;;;;;16.60;8.27;;;10.50;99.90;;;;;;5042073;28;20204;-72
2023/03/13 03:24:21;;;;;;;13.70;6.83;;;10.60;99.90;;;;;;5030985;28;20237;-72
2023/03/13 03:26:47;;;;;;;14.57;7.47;;;10.60;99.90;;;;;;5042033;28;20278;-73
2023/03/13 03:29:14;;;;;;;18.00;7.70;;;10.60;99.90;;;;;;5040641;28;20499;-73
2023/03/13 03:31:41;;;;;;;16.33;6.97;;;10.60;99.90;;;;;;5042260;28;20300;-73
2023/03/13 03:34:07;;;;;;;13.80;8.03;;;10.60;99.90;;;;;;5038342;28;20698;-72
2023/03/13 03:36:34;;;;;;;13.57;7.53;;;10.70;99.90;;;;;;5027643;28;20188;-73
2023/03/13 03:39:01;;;;;;;12.77;7.87;;;10.70;99.90;;;;;;5038442;28;20292;-72
2023/03/13 03:41:28;;;;;;;15.47;7.83;;;10.70;99.90;;;;;;5040797;28;20244;-74
2023/03/13 03:43:54;;;;;;;16.50;8.60;;;10.80;99.90;;;;;;5040205;28;20211;-73
2023/03/13 03:46:21;;;;;;;13.20;7.70;;;10.80;99.90;;;;;;5031146;28;20206;-73
2023/03/13 03:48:48;;;;;;;14.57;7.57;;;10.90;99.90;;;;;;5038571;28;20313;-71
2023/03/13 03:51:15;;;;;;;15.67;8.10;;;10.90;99.90;;;;;;5040284;28;20313;-73
2023/03/13 03:53:41;;;;;;;13.83;8.47;;;10.90;99.90;;;;;;5043156;28;20315;-72
2023/03/13 03:56:08;;;;;;;15.27;7.80;;;10.90;99.90;;;;;;5048213;28;20758;-72
2023/03/13 03:58:35;;;;;;;14.77;8.00;;;11.00;99.90;;;;;;5025807;28;20219;-72
2023/03/13 04:01:02;;;;;;;14.70;8.43;;;11.10;99.90;;;;;;5043987;28;20212;-72
2023/03/13 04:03:29;;;;;;;15.93;8.83;;;11.10;99.90;;;;;;5043133;28;20228;-72
2023/03/13 04:05:56;;;;;;;15.90;8.70;;;11.10;99.90;;;;;;5045291;28;20243;-71
2023/03/13 04:08:23;;;;;;;17.17;8.87;;;11.20;99.90;;;;;;5042116;28;20220;-72
2023/03/13 04:10:50;;;;;;;17.20;8.73;;;11.20;99.90;;;;;;5026165;28;20221;-72
2023/03/13 04:13:17;;;;;;;18.43;10.17;;;11.30;99.90;;;;;;5048208;28;20719;-72
2023/03/13 04:15:44;;;;;;;19.33;10.00;;;11.30;99.90;;;;;;5026230;28;20584;-72
2023/03/13 04:18:10;;;;;;;20.53;10.53;;;11.40;99.90;;;;;;5045700;28;20385;-73
2023/03/13 04:20:37;;;;;;;22.37;11.33;;;11.50;99.90;;;;;;5026081;28;20318;-72
2023/03/13 04:23:04;;;;;;;18.23;10.90;;;11.50;99.90;;;;;;5044384;28;20212;-71
2023/03/13 04:25:30;;;;;;;17.23;10.17;;;11.50;99.90;;;;;;5024706;28;20202;-71
2023/03/13 04:27:57;;;;;;;19.57;10.43;;;11.50;99.90;;;;;;5041779;28;20202;-74
2023/03/13 04:30:24;;;;;;;17.50;10.67;;;11.60;99.90;;;;;;5045401;28;20210;-71
2023/03/13 04:32:51;;;;;;;16.97;9.43;;;11.60;99.90;;;;;;5027252;28;20247;-72
2023/03/13 04:35:17;;;;;;;19.07;11.03;;;11.60;99.90;;;;;;5041280;28;20257;-72
2023/03/13 04:37:44;;;;;;;18.73;10.57;;;11.70;99.90;;;;;;5044045;28;20297;-72
2023/03/13 04:40:12;;;;;;;16.67;10.53;;;11.70;99.90;;;;;;5024952;28;20289;-72
2023/03/13 04:42:40;;;;;;;19.50;11.23;;;11.70;99.90;;;;;;5042710;28;20312;-71
2023/03/13 04:45:11;;;;;;;20.70;11.60;;;11.80;99.90;;;;;;5027643;28;20251;-73
2023/03/13 04:47:40;;;;;;;18.57;11.07;;;11.80;99.90;;;;;;5024530;28;20217;-74
2023/03/13 04:50:07;;;;;;;19.20;11.50;;;11.80;99.90;;;;;;5045723;28;20212;-72
2023/03/13 04:52:34;;;;;;;19.70;10.73;;;11.80;99.90;;;;;;5047042;28;20258;-72
2023/03/13 04:55:01;;;;;;;18.93;10.93;;;11.90;99.90;;;;;;5055823;28;20229;-74
2023/03/13 04:57:27;;;;;;;21.97;11.57;;;11.90;99.90;;;;;;5026940;28;20674;-73
2023/03/13 04:59:54;;;;;;;19.13;11.40;;;11.90;99.90;;;;;;5023513;28;20206;-73
2023/03/13 05:02:21;;;;;;;20.83;12.13;;;11.90;99.90;;;;;;5025826;28;20271;-72
2023/03/13 05:04:48;;;;;;;19.43;11.83;;;12.00;99.90;;;;;;5041307;28;20209;-72
2023/03/13 05:07:17;;;;;;;17.90;10.83;;;12.00;99.90;;;;;;5041568;28;20238;-74
2023/03/13 05:09:44;;;;;;;20.67;11.73;;;12.10;99.90;;;;;;5043884;28;20215;-74
2023/03/13 05:12:11;;;;;;;20.83;10.97;;;12.10;99.90;;;;;;5043243;28;20292;-73
2023/03/13 05:14:37;;;;;;;20.53;12.33;;;12.10;99.90;;;;;;5043123;28;20279;-72
2023/03/13 05:17:04;;;;;;;20.27;12.77;;;12.10;99.90;;;;;;5044489;28;20198;-73
2023/03/13 05:19:31;;;;;;;20.17;13.17;;;12.10;99.90;;;;;;5042222;28;20305;-73
2023/03/13 05:21:58;;;;;;;20.40;11.53;;;12.20;99.90;;;;;;5041212;28;20598;-72
2023/03/13 05:24:24;;;;;;;20.97;12.33;;;12.20;99.90;;;;;;5043332;28;20304;-73
2023/03/13 05:26:51;;;;;;;21.27;11.73;;;12.20;99.90;;;;;;5043659;28;20216;-72
2023/03/13 05:29:18;;;;;;;19.70;11.80;;;12.20;99.90;;;;;;5041302;28;20205;-73
2023/03/13 05:31:45;;;;;;;18.67;10.90;;;12.30;99.90;;;;;;5044204;28;20297;-73
2023/03/13 05:34:11;;;;;;;13.63;10.20;;;12.20;99.90;;;;;;5042986;28;20316;-73
2023/03/13 05:36:38;;;;;;;20.53;11.20;;;12.30;99.90;;;;;;5042367;28;20296;-72
2023/03/13 05:39:05;;;;;;;13.87;10.03;;;12.30;99.90;;;;;;5044249;28;20216;-72
2023/03/13 05:41:32;;;;;;;19.07;10.40;;;12.30;99.90;;;;;;5023610;28;20205;-72
2023/03/13 05:43:58;;;;;;;14.47;9.47;;;12.30;99.90;;;;;;5043072;28;20240;-72
2023/03/13 05:46:25;;;;;;;16.33;10.17;;;12.40;99.90;;;;;;5039566;28;20215;-73
2023/03/13 05:48:52;;;;;;;16.73;9.47;;;12.40;99.90;;;;;;5041736;28;20225;-72
2023/03/13 05:51:18;;;;;;;16.13;9.33;;;12.40;99.90;;;;;;5040903;28;20241;-73
2023/03/13 05:53:45;;;;;;;14.30;9.97;;;12.40;99.90;;;;;;5041912;28;20665;-72
2023/03/13 05:56:12;;;;;;;13.97;9.90;;;12.50;99.90;;;;;;5041047;28;20636;-75
2023/03/13 05:58:38;;;;;;;15.50;9.30;;;12.50;99.90;;;;;;5040362;28;20236;-73
2023/03/13 06:01:09;;;;;;;14.70;8.20;;;12.50;99.90;;;;;;5043824;28;20658;-72
2023/03/13 06:03:36;;;;;;;12.90;8.07;;;12.50;99.90;;;;;;5029041;28;20303;-72
2023/03/13 06:06:03;;;;;;;14.63;8.73;;;12.50;99.90;;;;;;5021790;28;20261;-74
2023/03/13 06:08:31;;;;;;;14.97;7.63;;;12.50;99.90;;;;;;5043692;28;20207;-72
2023/03/13 06:10:59;;;;;;;16.07;6.90;;;12.50;99.90;;;;;;5043028;28;20205;-73
2023/03/13 06:13:26;;;;;;;12.63;7.00;;;12.60;99.90;;;;;;5025070;28;20292;-73
2023/03/13 06:15:54;;;;;;;11.83;6.57;;;12.60;99.90;;;;;;5039140;28;20221;-74
2023/03/13 06:18:23;;;;;;;10.97;6.00;;;12.60;99.90;;;;;;5037626;28;20700;-73
2023/03/13 06:20:55;;;;;;;11.57;5.47;;;12.60;99.90;;;;;;5039949;28;20263;-73
2023/03/13 06:23:21;;;;;;;11.27;6.13;;;12.60;99.90;;;;;;5041740;28;20296;-72
2023/03/13 06:25:48;;;;;;;13.97;5.80;;;12.70;99.90;;;;;;5046096;28;20208;-73
2023/03/13 06:28:15;;;;;;;15.63;6.17;;;12.70;99.90;;;;;;5041202;28;20205;-72
2023/03/13 06:30:42;;;;;;;11.77;5.33;;;12.80;99.90;;;;;;5041473;28;20194;-72
2023/03/13 06:33:09;;;;;;;14.13;5.00;;;12.80;99.90;;;;;;5025253;28;20304;-73
2023/03/13 06:35:40;;;;;;;11.67;5.03;;;12.80;99.90;;;;;;5043236;28;20359;-73
2023/03/13 06:38:22;;;;;;;11.80;5.40;;;13.10;99.90;;;;;;5039049;28;20201;-72
2023/03/13 06:40:49;;;;;;;9.07;5.03;;;12.90;99.90;;;;;;5024899;28;20368;-73
2023/03/13 06:43:15;;;;;;;7.93;5.30;;;12.80;99.90;;;;;;5027437;28;20625;-73
2023/03/13 06:45:42;;;;;;;8.80;5.30;;;12.90;99.90;;;;;;5041743;28;20744;-74
2023/03/13 06:48:09;;;;;;;8.33;5.07;;;12.90;99.90;;;;;;5041416;28;20325;-74
2023/03/13 06:50:40;;;;;;;10.77;5.43;;;12.90;99.90;;;;;;5022789;28;20680;-74
2023/03/13 06:53:16;;;;;;;13.80;5.40;;;13.00;99.90;;;;;;5039183;28;20780;-73
2023/03/13 06:55:44;;;;;;;9.60;5.30;;;13.00;99.90;;;;;;5027261;28;20260;-73
2023/03/13 06:58:11;;;;;;;10.30;5.93;;;13.00;99.90;;;;;;5041409;28;20303;-74
2023/03/13 07:00:54;;;;;;;10.93;5.60;;;13.00;99.90;;;;;;5040437;28;20236;-72
2023/03/13 07:03:21;;;;;;;14.23;5.90;;;12.90;99.90;;;;;;5038588;28;20236;-73
2023/03/13 07:05:48;;;;;;;12.20;5.93;;;13.00;99.90;;;;;;5042268;28;20657;-73
2023/03/13 07:08:14;;;;;;;11.37;5.67;;;12.90;99.90;;;;;;5041049;28;20211;-73
2023/03/13 07:10:42;;;;;;;10.27;5.70;;;13.00;99.90;;;;;;5040292;28;20224;-74
2023/03/13 07:13:08;;;;;;;10.13;5.70;;;13.10;99.90;;;;;;5025917;28;20214;-73
2023/03/13 07:15:36;;;;;;;12.67;5.30;;;;;;;;;;5041638;28;20225;-72
2023/03/13 07:18:02;;;;;;;12.00;6.10;;;13.10;99.90;;;;;;5041529;28;20220;-74
2023/03/13 07:20:29;;;;;;;10.73;5.17;;;13.10;99.90;;;;;;5039291;28;20197;-73
2023/03/13 07:22:56;;;;;;;8.43;5.00;;;13.10;99.90;;;;;;5040390;28;20292;-73
2023/03/13 07:25:23;;;;;;;10.10;4.67;;;13.10;99.90;;;;;;5040648;28;20670;-72
2023/03/13 07:27:52;;;;;;;10.57;5.43;;;13.20;99.90;;;;;;5025327;28;20197;-72
2023/03/13 07:30:19;;;;;;;8.93;4.67;;;13.20;99.90;;;;;;5042438;28;20666;-72
2023/03/13 07:32:45;;;;;;;8.97;4.63;;;13.20;99.90;;;;;;5042381;28;20218;-72
2023/03/13 07:35:12;;;;;;;7.87;4.43;;;13.20;99.90;;;;;;5027346;28;20644;-74
2023/03/13 07:37:39;;;;;;;9.30;5.17;;;13.30;99.90;;;;;;5044202;28;20193;-72
2023/03/13 07:40:08;;;;;;;9.20;4.73;;;13.30;99.90;;;;;;5041850;28;20233;-73
2023/03/13 07:42:34;;;;;;;13.80;4.93;;;13.30;99.90;;;;;;5052521;28;20276;-73
2023/03/13 07:45:01;;;;;;;10.73;4.50;;;13.30;99.90;;;;;;5046250;28;20316;-73
2023/03/13 07:47:28;;;;;;;18.00;4.80;;;13.30;99.90;;;;;;5044237;28;20217;-73
2023/03/13 07:49:55;;;;;;;8.77;4.10;;;13.40;99.90;;;;;;5025925;28;20233;-75
2023/03/13 07:52:22;;;;;;;8.50;4.43;;;13.30;99.90;;;;;;5047436;28;20205;-73
2023/03/13 07:54:48;;;;;;;12.10;4.47;;;13.30;99.90;;;;;;5051862;28;20239;-73
2023/03/13 07:57:15;;;;;;;14.13;4.57;;;13.30;99.90;;;;;;5048085;28;20204;-73
2023/03/13 07:59:42;;;;;;;13.20;5.53;;;13.30;99.90;;;;;;5033541;28;20217;-72
2023/03/13 08:02:12;;;;;;;10.50;4.67;;;13.30;99.90;;;;;;5045042;28;20216;-74
2023/03/13 08:04:39;;;;;;;9.60;4.53;;;13.30;99.90;;;;;;5024720;28;20258;-74
2023/03/13 08:07:11;;;;;;;11.47;5.17;;;13.30;99.90;;;;;;5032882;28;20588;-73
2023/03/13 08:09:37;;;;;;;7.13;4.30;;;13.20;99.90;;;;;;5048631;28;20251;-73
2023/03/13 08:12:04;;;;;;;10.27;4.60;;;13.20;99.90;;;;;;5041132;28;20230;-75
2023/03/13 08:14:32;;;;;;;10.80;5.07;;;13.20;99.90;;;;;;5034153;28;20858;-73
2023/03/13 08:16:58;;;;;;;11.43;4.63;;;13.20;99.90;;;;;;5045525;28;20252;-74
2023/03/13 08:19:25;;;;;;;13.00;4.87;;;13.20;99.90;;;;;;5042316;28;20217;-74
2023/03/13 08:21:52;;;;;;;12.27;5.30;;;13.10;99.90;;;;;;5044815;28;20779;-74
2023/03/13 08:24:19;;;;;;;7.43;4.30;;;13.10;99.90;;;;;;5027056;28;20650;-73
2023/03/13 08:26:46;;;;;;;9.00;4.77;;;13.10;99.90;;;;;;5046625;28;20248;-74
2023/03/13 08:29:13;;;;;;;9.83;4.83;;;13.20;99.90;;;;;;5030205;28;20210;-73
2023/03/13 08:31:46;;;;;;;6.93;4.50;;;13.30;99.90;;;;;;5044530;28;20210;-73
2023/03/13 08:34:15;;;;;;;11.70;4.77;;;13.30;99.90;;;;;;5045650;28;20771;-73
2023/03/13 08:36:43;;;;;;;8.90;4.70;;;13.30;99.90;;;;;;5025466;28;20295;-72
2023/03/13 08:39:15;;;;;;;9.90;4.90;;;13.20;99.90;;;;;;5045879;28;20658;-74
2023/03/13 08:41:42;;;;;;;12.87;4.97;;;13.20;99.90;;;;;;5047234;28;20287;-72
2023/03/13 08:44:14;;;;;;;9.67;4.47;;;13.20;99.90;;;;;;5037246;28;20229;-73
2023/03/13 08:46:42;;;;;;;10.10;5.63;;;13.10;99.90;;;;;;5011340;28;20320;-73
2023/03/13 08:49:13;;;;;;;8.50;5.13;;;13.10;99.90;;;;;;5046648;28;20218;-72
2023/03/13 08:51:40;;;;;;;12.67;5.90;;;13.10;99.90;;;;;;5052308;28;20202;-73
2023/03/13 08:54:07;;;;;;;7.83;5.07;;;13.10;99.90;;;;;;5015710;28;20259;-71
2023/03/13 08:56:34;;;;;;;14.87;5.83;;;13.20;99.90;;;;;;5053549;28;20204;-72
2023/03/13 08:59:03;;;;;;;12.83;5.60;;;13.20;99.90;;;;;;5034165;28;20296;-72
2023/03/13 09:01:34;;;;;;;11.50;5.40;;;13.20;99.90;;;;;;5055889;28;20197;-72
2023/03/13 09:04:02;;;;;;;8.80;4.80;;;13.30;99.90;;;;;;5034344;28;20285;-72
2023/03/13 09:06:32;;;;;;;9.40;4.63;;;13.30;99.90;;;;;;5047744;28;20240;-73
2023/03/13 09:08:59;;;;;;;6.30;4.33;;;13.30;99.90;;;;;;5050664;28;20189;-72
2023/03/13 09:11:26;;;;;;;8.87;4.20;;;13.30;99.90;;;;;;5020960;28;20332;-72
2023/03/13 09:13:54;;;;;;;9.10;4.07;;;13.40;99.90;;;;;;5052984;28;20292;-72
2023/03/13 09:16:23;;;;;;;6.83;3.87;;;13.50;99.90;;;;;;5033323;28;20266;-72
2023/03/13 09:18:51;;;;;;;7.33;3.13;;;13.60;99.90;;;;;;5050958;28;20241;-73
2023/03/13 09:21:21;;;;;;;9.20;3.33;;;13.60;99.90;;;;;;5039400;28;20280;-73
2023/03/13 09:23:48;;;;;;;6.27;3.20;;;13.70;99.90;;;;;;5056545;28;20224;-73
2023/03/13 09:26:16;;;;;;;8.10;3.37;;;13.80;99.90;;;;;;5054633;28;20204;-72
2023/03/13 09:28:43;;;;;;;7.93;3.23;;;13.70;99.90;;;;;;5050909;28;20240;-72
2023/03/13 09:31:15;;;;;;;7.13;3.00;;;13.80;99.90;;;;;;5034857;28;20252;-73
2023/03/13 09:33:44;;;;;;;8.03;2.50;;;13.80;99.90;;;;;;5048329;28;20269;-72
2023/03/13 09:36:11;;;;;;;9.27;3.50;;;13.70;99.90;;;;;;5037630;28;20263;-74
2023/03/13 09:38:39;;;;;;;6.67;2.50;;;13.80;99.90;;;;;;5046473;28;20197;-74
2023/03/13 09:41:32;;;;;;;9.07;3.07;;;13.90;99.90;;;;;;5050781;28;20259;-73
2023/03/13 09:44:12;;;;;;;7.00;2.93;;;14.00;99.90;;;;;;5046015;28;20297;-72
2023/03/13 09:46:46;;;;;;;4.03;2.20;;;14.10;99.90;;;;;;5041100;28;20197;-74
2023/03/13 09:49:36;;;;;;;6.38;2.40;;;14.30;99.90;;;;;;5031675;28;20222;-73
2023/03/13 09:52:21;;;;;;;4.93;2.15;;;14.70;99.90;;;;;;5051389;28;20735;-72
2023/03/13 09:54:55;;;;;;;5.68;2.20;;;15.10;99.90;;;;;;5055782;28;20266;-73
2023/03/13 09:57:34;;;;;;;4.40;2.15;;;15.30;99.90;;;;;;5049137;28;20302;-72
2023/03/13 10:00:13;;;;;;;7.68;2.25;;;15.30;99.90;;;;;;5052326;28;20691;-73
2023/03/13 10:02:46;;;;;;;4.43;2.00;;;15.30;99.90;;;;;;5030558;28;20264;-73
2023/03/13 10:05:18;;;;;;;7.35;1.90;;;15.30;99.90;;;;;;5012056;28;20673;-73
2023/03/13 10:07:45;;;;;;;4.43;1.70;;;15.30;99.90;;;;;;5043946;28;20662;-74
2023/03/13 10:10:33;;;;;;;5.68;1.88;;;15.20;99.90;;;;;;5047994;28;20208;-72
2023/03/13 10:13:14;;;;;;;5.03;2.65;;;15.30;99.90;;;;;;5045860;28;20287;-72
2023/03/13 10:15:58;;;;;;;4.50;1.90;;;15.30;99.90;;;;;;5046129;28;20226;-72
2023/03/13 10:18:25;;;;;;;8.02;2.95;;;15.40;99.90;;;;;;5028774;28;20218;-73
2023/03/13 10:20:56;;;;;;;5.53;1.65;;;15.40;99.90;;;;;;5046155;28;20293;-73
2023/03/13 10:23:34;;;;;;;5.97;1.80;;;15.60;99.90;;;;;;5047940;28;20209;-72
2023/03/13 10:26:01;;;;;;;5.80;1.88;;;15.80;99.90;;;;;;5026830;28;20308;-74
2023/03/13 10:28:28;;;;;;;2.88;1.50;;;15.90;99.90;;;;;;5048609;28;20219;-74
2023/03/13 10:31:35;;;;;;;3.30;1.70;;;15.90;99.90;;;;;;5043033;28;20244;-72
2023/03/13 10:34:10;;;;;;;6.20;1.90;;;15.90;99.90;;;;;;5046290;28;20213;-74
2023/03/13 10:36:42;;;;;;;8.20;1.88;;;15.80;99.90;;;;;;5026584;28;20681;-73
2023/03/13 10:39:20;;;;;;;7.57;1.80;;;15.90;99.90;;;;;;5022846;28;20556;-71
2023/03/13 10:41:49;;;;;;;4.38;1.90;;;15.80;99.90;;;;;;5046101;28;20308;-74
2023/03/13 10:44:18;;;;;;;8.55;2.25;;;15.80;99.90;;;;;;5048888;28;20247;-72
2023/03/13 10:46:47;;;;;;;8.10;2.05;;;15.80;99.90;;;;;;5052645;28;20327;-74
2023/03/13 10:49:20;;;;;;;4.85;1.75;;;15.70;99.90;;;;;;5046505;28;20796;-74
2023/03/13 10:51:53;;;;;;;4.43;1.90;;;15.70;99.90;;;;;;5045784;28;20220;-76
2023/03/13 10:54:34;;;;;;;4.43;2.15;;;15.80;99.90;;;;;;5048586;28;20247;-74
2023/03/13 10:57:22;;;;;;;4.32;1.85;;;15.80;99.90;;;;;;5030689;28;20693;-74
2023/03/13 10:59:51;;;;;;;3.63;1.85;;;15.80;99.90;;;;;;5045502;28;20292;-74
2023/03/13 11:02:31;;;;;;;3.47;1.70;;;15.90;99.90;;;;;;5045993;28;20202;-74
2023/03/13 11:04:58;;;;;;;4.60;2.00;;;16.00;99.90;;;;;;5029269;28;20216;-74
2023/03/13 11:07:27;;;;;;;5.57;2.20;;;16.10;99.90;;;;;;5048477;28;20253;-72
2023/03/13 11:10:12;;;;;;;6.10;2.08;;;16.10;99.90;;;;;;5046171;28;20271;-75
2023/03/13 11:12:45;;;;;;;7.25;1.55;;;16.20;99.90;;;;;;5025258;28;20247;-74
2023/03/13 11:15:15;;;;;;;4.80;2.13;;;16.30;99.90;;;;;;5043798;28;20460;-72
2023/03/13 11:17:46;;;;;;;2.17;1.65;;;16.40;99.90;;;;;;5044561;28;20263;-75
2023/03/13 11:20:34;;;;;;;8.70;1.83;;;16.40;99.90;;;;;;5048125;28;20204;-73
2023/03/13 11:23:16;;;;;;;4.30;1.52;;;16.60;99.90;;;;;;5044108;28;20197;-73
2023/03/13 11:26:05;;;;;;;9.48;2.17;;;16.60;99.90;;;;;;5051951;28;20292;-72
2023/03/13 11:28:54;;;;;;;7.00;1.50;;;16.60;99.90;;;;;;5043290;28;20217;-73
2023/03/13 11:31:27;;;;;;;3.65;1.58;;;16.60;99.90;;;;;;5044849;28;20201;-72
2023/03/13 11:34:16;;;;;;;5.10;1.67;;;16.70;99.90;;;;;;5050885;28;20221;-74
2023/03/13 11:37:02;;;;;;;5.65;1.60;;;16.90;99.90;;;;;;5045371;28;20270;-73
2023/03/13 11:39:54;;;;;;;6.85;1.58;;;17.00;99.90;;;;;;5046424;28;20205;-72
2023/03/13 11:42:58;;;;;;;5.07;1.80;;;17.10;99.90;;;;;;5028151;28;20662;-74
2023/03/13 11:45:57;;;;;;;8.57;1.88;;;17.20;99.90;;;;;;5044606;28;20266;-74
2023/03/13 11:48:38;;;;;;;5.97;1.92;;;17.30;99.90;;;;;;5044893;28;20205;-72
2023/03/13 11:51:12;;;;;;;4.82;1.88;;;17.20;99.90;;;;;;5041716;28;20639;-72
2023/03/13 11:54:08;;;;;;;4.72;1.60;;;17.30;99.90;;;;;;5028774;28;20203;-74
2023/03/13 11:57:01;;;;;;;5.13;2.30;;;17.40;99.90;;;;;;5011677;28;20817;-72
2023/03/13 11:59:43;;;;;;;5.25;1.70;;;17.30;99.90;;;;;;5031166;28;20205;-72
2023/03/13 12:02:21;;;;;;;4.22;2.15;;;17.10;99.90;;;;;;5046182;28;20194;-74
2023/03/13 12:04:58;;;;;;;4.97;1.98;;;17.10;99.90;;;;;;5045065;28;20240;-73
2023/03/13 12:07:34;;;;;;;4.18;2.40;;;17.20;99.90;;;;;;5042439;28;20204;-72
2023/03/13 12:10:08;;;;;;;3.95;2.10;;;17.20;99.90;;;;;;5041968;28;20677;-74
2023/03/13 12:12:46;;;;;;;5.53;1.90;;;17.20;99.90;;;;;;5047361;28;20692;-73
2023/03/13 12:15:16;;;;;;;6.10;2.47;;;17.30;99.90;;;;;;5043614;28;20209;-72
2023/03/13 12:17:59;;;;;;;5.70;2.10;;;17.30;99.90;;;;;;5032595;28;20229;-72
2023/03/13 12:20:41;;;;;;;5.20;2.13;;;17.30;99.90;;;;;;5031522;28;20193;-73
2023/03/13 12:23:18;;;;;;;7.47;2.15;;;17.20;99.90;;;;;;5043910;28;20679;-73
2023/03/13 12:26:09;;;;;;;5.60;2.30;;;17.20;99.90;;;;;;5049045;28;20208;-73
2023/03/13 12:29:06;;;;;;;3.92;1.90;;;17.30;99.90;;;;;;5049752;28;20743;-73
2023/03/13 12:31:41;;;;;;;3.65;2.60;;;17.30;99.90;;;;;;5047033;28;20253;-73
2023/03/13 12:34:38;;;;;;;4.22;1.90;;;17.20;99.90;;;;;;5050832;28;20221;-72
2023/03/13 12:37:29;;;;;;;4.22;1.70;;;17.10;99.90;;;;;;5044235;28;20353;-74
2023/03/13 12:40:17;;;;;;;4.93;1.75;;;17.10;99.90;;;;;;5047297;28;20235;-73
2023/03/13 12:43:04;;;;;;;4.85;1.80;;;17.10;99.90;;;;;;5049272;28;20209;-73
2023/03/13 12:45:32;;;;;;;4.00;1.40;;;17.20;99.90;;;;;;5029456;28;20201;-74
2023/03/13 12:48:16;;;;;;;6.20;1.88;;;17.30;99.90;;;;;;5029528;28;20244;-73
2023/03/13 12:51:03;;;;;;;7.10;1.88;;;17.50;99.90;;;;;;5053226;28;20266;-73
2023/03/13 12:53:48;;;;;;;4.40;1.48;;;17.60;99.90;;;;;;5047794;28;20776;-74
2023/03/13 12:56:25;;;;;;;4.50;1.75;;;17.70;99.90;;;;;;5052698;28;20661;-72
2023/03/13 12:59:09;;;;;;;6.25;1.60;;;17.80;99.90;;;;;;5033201;28;20232;-73
2023/03/13 13:01:44;;;;;;;4.07;1.17;;;17.80;99.90;;;;;;5040875;28;20699;-73